Pagrindinis puslapis
METAR-TAF:

METAR-TAF

Oro uostai :

Salala, Omanas

platuma: 17-02N, ilguma: 054-05E, Aukštis: 20 m

Dabartinis oras

Ataskaita buvo paskelbta 1 valandą ir 8 minutes, ne 11:50 UTC
Vėjas 10 kt iš Pietų
Temperatūra 29°C
Drėgmė 79%
Slėgis 1005 hPa
Matomumas 10 km arba daugiau
Su prošvaistėmis ne aukštis 3000 ft

METAR: OOSA 191150Z 18010KT 9999 BKN030 29/25 Q1005 NOSIG

Laikas: 16:58 (12:58 UTC)

Prognozė

Ataskaita buvo paskelbta 1 valandą ir 18 minutes, ne 11:40 UTC
Prognozė galioja nuo 19 metu 12 UTC su 20 metu 18 UTC
Vėjas 10 kt iš Pietų
Matomumas 10 km arba daugiau
Mažai debesys ne aukštis 1800 ft
Su prošvaistėmis ne aukštis 3000 ft
Tapsmas
nuo 19 metu 16 UTC su 19 metu 18 UTC
Vėjas 3 kt nuo kintamojo kryptimis
Tapsmas
nuo 20 metu 06 UTC su 20 metu 08 UTC
Vėjas 10 kt iš Pietų

TAF: OOSA 191140Z 1912/2018 19010KT 9999 FEW018 BKN030 BECMG 1916/1918 VRB03KT BECMG 2006/2008 19010KT

Orai ataskaitas ir orų prognozės (METAR, TAF).

turimą stotys yra geltonos ir raudonos taškus žemėlapyje.

Perkelti pele per norėdami pamatyti stoties vardą.

Tada spustelėkite, norėdami matyti oro stebėjimo ir prognozės.

Norėdami pakeisti žemėlapį: spustelėkite ant žalios mygtukų su juodo kryžiaus žemyn,; žalią mygtuką su brūkšneliu, jei norite nutolinti; arba žalių rodyklių gretimoms žemėlapius.


METAR-TAF: